Time;durP1;ratioP1;P1;durP2;ratioP2;P2;SDS_P1;SDS_P2;PMS_P1;PMS_P2;Temp;Humidity;BMP_temperature;BMP_pressure;BME280_temperature;BME280_humidity;BME280_pressure;Samples;Min_cycle;Max_cycle;Signal;HPM_P1;HPM_P2
2023/12/27 00:00:43;;;;;;;0.35;0.35;;;;;;;6.88;93.95;101122.84;4919689;29;20043;-69
2023/12/27 00:03:08;;;;;;;0.30;0.30;;;;;;;6.93;94.07;101120.00;4921110;29;20043;-69
2023/12/27 00:05:34;;;;;;;0.70;0.43;;;;;;;7.05;92.61;101128.16;4920936;29;21165;-69
2023/12/27 00:07:59;;;;;;;0.85;0.60;;;;;;;7.09;92.22;101125.63;4919476;29;20040;-69
2023/12/27 00:10:25;;;;;;;2.47;0.43;;;;;;;6.89;93.17;101131.66;4919156;29;20419;-69
2023/12/27 00:12:50;;;;;;;0.63;0.30;;;;;;;6.75;93.84;101134.53;4916702;29;20047;-69
2023/12/27 00:15:16;;;;;;;0.20;0.20;;;;;;;6.92;93.69;101128.34;4918964;29;20224;-69
2023/12/27 00:17:42;;;;;;;0.85;0.52;;;;;;;6.87;93.43;101134.63;4917856;29;20063;-69
2023/12/27 00:20:08;;;;;;;1.10;0.73;;;;;;;6.81;93.80;101127.13;4920588;29;20040;-69
2023/12/27 00:22:34;;;;;;;1.10;0.65;;;;;;;6.76;93.91;101138.75;4919578;29;20055;-69
2023/12/27 00:25:00;;;;;;;0.40;0.40;;;;;;;6.86;93.97;101141.09;4921054;29;20066;-69
2023/12/27 00:27:25;;;;;;;0.40;0.40;;;;;;;7.00;93.40;101136.38;4920788;29;20043;-68
2023/12/27 00:29:51;;;;;;;7.88;0.50;;;;;;;7.05;92.76;101149.56;4919586;29;20028;-69
2023/12/27 00:32:17;;;;;;;3.13;0.57;;;;;;;7.07;92.31;101151.94;4917272;29;20059;-69
2023/12/27 00:34:42;;;;;;;0.93;0.93;;;;;;;7.00;92.12;101157.78;4919827;29;20135;-69
2023/12/27 00:37:09;;;;;;;0.70;0.43;;;;;;;6.70;93.71;101152.59;4909755;29;20098;-69
2023/12/27 00:39:34;;;;;;;0.30;0.30;;;;;;;6.80;93.89;101168.34;4920250;29;20043;-69
2023/12/27 00:42:00;;;;;;;2.83;1.10;;;;;;;6.78;93.51;101162.53;4913632;29;20044;-69
2023/12/27 00:44:25;;;;;;;0.90;0.40;;;;;;;6.92;92.97;101163.94;4918200;29;20046;-69
2023/12/27 00:46:51;;;;;;;2.50;0.35;;;;;;;7.03;92.18;101178.56;4924731;29;20113;-69
2023/12/27 00:49:18;;;;;;;0.35;0.35;;;;;;;7.09;92.43;101181.84;4919659;29;20031;-69
2023/12/27 00:51:46;;;;;;;0.98;0.43;;;;;;;7.08;91.74;101182.97;4919620;29;20043;-69
2023/12/27 00:54:12;;;;;;;1.25;1.05;;;;;;;6.82;92.89;101185.66;4912898;29;20036;-69
2023/12/27 00:56:39;;;;;;;1.60;0.57;;;;;;;6.92;92.78;101193.38;4919591;29;20032;-70
2023/12/27 00:59:05;;;;;;;0.35;0.35;;;;;;;6.86;93.22;101201.88;4920618;29;20123;-70
2023/12/27 01:01:32;;;;;;;4.95;0.65;;;;;;;6.94;92.91;101193.06;4912975;29;20035;-69
2023/12/27 01:03:58;;;;;;;1.08;0.35;;;;;;;6.98;92.36;101194.00;4943570;28;20046;-69
2023/12/27 01:06:23;;;;;;;0.20;0.20;;;;;;;6.84;92.68;101199.53;4920363;29;20045;-69
2023/12/27 01:08:49;;;;;;;0.40;0.40;;;;;;;6.82;92.82;101201.72;4918139;29;20027;-69
2023/12/27 01:11:14;;;;;;;0.35;0.35;;;;;;;6.72;93.28;101196.69;4917780;29;20043;-69
2023/12/27 01:13:40;;;;;;;10.43;1.52;;;;;;;6.80;92.64;101190.56;4900433;29;20035;-69
2023/12/27 01:16:06;;;;;;;2.28;0.43;;;;;;;6.73;93.27;101200.94;4918387;29;20650;-69
2023/12/27 01:18:31;;;;;;;1.02;0.63;;;;;;;6.73;93.15;101203.63;4919189;29;20467;-69
2023/12/27 01:20:57;;;;;;;0.40;0.40;;;;;;;6.76;93.31;101210.22;4917068;29;20031;-69
2023/12/27 01:23:22;;;;;;;0.65;0.65;;;;;;;6.79;93.00;101205.06;4917192;29;20043;-69
2023/12/27 01:25:48;;;;;;;0.50;0.50;;;;;;;6.86;92.44;101208.03;4917749;29;20487;-69
2023/12/27 01:28:14;;;;;;;1.05;0.45;;;;;;;6.80;92.29;101211.16;4918789;29;20130;-69
2023/12/27 01:30:39;;;;;;;0.75;0.57;;;;;;;6.73;92.51;101221.56;4924473;29;20051;-69
2023/12/27 01:33:05;;;;;;;0.85;0.47;;;;;;;6.71;92.33;101219.22;4927925;29;20027;-69
2023/12/27 01:35:30;;;;;;;0.75;0.38;;;;;;;6.55;93.36;101226.13;4924913;29;20508;-69
2023/12/27 01:37:56;;;;;;;1.27;0.52;;;;;;;6.65;93.29;101225.81;4926810;29;20434;-70
2023/12/27 01:40:21;;;;;;;0.75;0.75;;;;;;;6.66;93.48;101235.41;4934824;28;20043;-69
2023/12/27 01:42:46;;;;;;;3.90;0.75;;;;;;;6.69;93.77;101237.47;4937640;28;20034;-69
2023/12/27 01:45:12;;;;;;;0.35;0.35;;;;;;;6.80;93.64;101243.28;4924082;29;20066;-69
2023/12/27 01:47:37;;;;;;;0.93;0.50;;;;;;;6.82;94.38;101251.78;4929056;29;20043;-69
2023/12/27 01:50:11;;;;;;;0.88;0.47;;;;;;;6.79;94.20;101242.53;4909812;29;20039;-72
2023/12/27 01:52:39;;;;;;;0.38;0.38;;;;;;;6.84;93.89;101242.34;4929299;29;20043;-69
2023/12/27 01:55:06;;;;;;;1.23;0.85;;;;;;;6.68;93.76;101243.91;4930973;29;20032;-69
2023/12/27 01:57:32;;;;;;;1.20;0.50;;;;;;;6.82;92.97;101236.53;4946051;28;20102;-69
2023/12/27 01:59:58;;;;;;;1.63;0.63;;;;;;;6.71;92.59;101242.50;4944063;29;20047;-70
2023/12/27 02:02:24;;;;;;;1.65;1.45;;;;;;;6.65;92.99;101236.53;4925057;29;20821;-69
2023/12/27 02:04:50;;;;;;;0.30;0.30;;;;;;;6.63;93.38;101238.72;4930369;29;20090;-69
2023/12/27 02:07:16;;;;;;;4.80;0.75;;;;;;;6.56;93.34;101238.41;4912819;29;20044;-69
2023/12/27 02:09:42;;;;;;;0.50;0.50;;;;;;;6.60;93.16;101244.69;4906737;29;20035;-69
2023/12/27 02:12:08;;;;;;;0.50;0.50;;;;;;;6.36;93.71;101245.13;4926220;29;20124;-69
2023/12/27 02:14:33;;;;;;;0.40;0.38;;;;;;;6.42;92.89;101251.13;4930912;29;20051;-69
2023/12/27 02:17:00;;;;;;;0.95;0.50;;;;;;;6.41;93.85;101252.22;4925861;29;20028;-69
2023/12/27 02:19:28;;;;;;;0.98;0.70;;;;;;;6.36;94.22;101245.13;4945889;29;20051;-69
2023/12/27 02:21:54;;;;;;;2.75;0.63;;;;;;;6.25;94.32;101243.81;4922908;29;20484;-70
2023/12/27 02:24:22;;;;;;;0.30;0.30;;;;;;;6.41;93.08;101236.16;4932307;29;20036;-69
2023/12/27 02:26:47;;;;;;;0.40;0.40;;;;;;;6.39;93.99;101235.69;4930256;29;20031;-69
2023/12/27 02:29:14;;;;;;;0.63;0.47;;;;;;;6.43;93.56;101244.66;4921328;29;20031;-69
2023/12/27 02:31:39;;;;;;;1.40;1.30;;;;;;;6.37;93.67;101249.38;4927933;29;20063;-69
2023/12/27 02:34:05;;;;;;;0.30;0.30;;;;;;;6.30;93.17;101234.88;4902310;29;20475;-69
2023/12/27 02:36:30;;;;;;;0.22;0.22;;;;;;;6.34;93.45;101250.00;4923609;29;20094;-69
2023/12/27 02:38:56;;;;;;;1.52;0.50;;;;;;;6.56;92.84;101249.09;4914952;29;20118;-69
2023/12/27 02:41:22;;;;;;;0.65;0.65;;;;;;;6.51;92.21;101241.22;4921567;29;20502;-68
2023/12/27 02:43:47;;;;;;;5.53;0.63;;;;;;;6.51;92.52;101257.25;4926233;29;20511;-69
2023/12/27 02:46:13;;;;;;;0.40;0.40;;;;;;;6.51;92.10;101256.47;4901947;29;20744;-69
2023/12/27 02:48:38;;;;;;;0.52;0.30;;;;;;;6.48;92.13;101257.09;4923880;29;20035;-69
2023/12/27 02:51:04;;;;;;;0.30;0.30;;;;;;;6.42;92.29;101259.16;4923277;29;20038;-69
2023/12/27 02:53:29;;;;;;;0.32;0.32;;;;;;;6.31;93.05;101255.97;4922803;29;20067;-69
2023/12/27 02:55:56;;;;;;;0.57;0.40;;;;;;;6.25;92.58;101259.88;4929707;29;20034;-69
2023/12/27 02:58:21;;;;;;;2.17;0.57;;;;;;;6.26;93.76;101255.31;4926924;29;20430;-69
2023/12/27 03:00:48;;;;;;;0.28;0.28;;;;;;;6.30;92.40;101264.31;4927383;29;20055;-69
2023/12/27 03:03:13;;;;;;;0.40;0.40;;;;;;;6.22;92.16;101267.72;4927097;29;20467;-69
2023/12/27 03:05:39;;;;;;;0.50;0.50;;;;;;;6.23;92.10;101266.66;4924290;29;20036;-69
2023/12/27 03:08:05;;;;;;;2.78;0.47;;;;;;;6.23;92.35;101267.41;4907119;29;20038;-69
2023/12/27 03:10:30;;;;;;;4.22;0.80;;;;;;;6.17;91.76;101274.03;4922567;29;20506;-69
2023/12/27 03:12:56;;;;;;;1.08;0.70;;;;;;;6.14;92.12;101276.50;4911681;29;20050;-69
2023/12/27 03:15:21;;;;;;;0.70;0.52;;;;;;;6.18;92.31;101274.78;4928958;29;20558;-69
2023/12/27 03:17:47;;;;;;;0.30;0.30;;;;;;;6.19;92.48;101271.81;4927247;29;20616;-69
2023/12/27 03:20:12;;;;;;;0.73;0.43;;;;;;;6.15;93.23;101257.50;4926864;29;20043;-69
2023/12/27 03:22:38;;;;;;;0.50;0.50;;;;;;;6.17;92.84;101259.88;4925650;29;20027;-69
2023/12/27 03:25:05;;;;;;;3.03;1.10;;;;;;;6.08;93.00;101261.69;4928861;29;20122;-69
2023/12/27 03:27:30;;;;;;;0.47;0.47;;;;;;;6.10;93.35;101262.97;4928629;29;20136;-69
2023/12/27 03:29:56;;;;;;;0.50;0.50;;;;;;;6.11;92.84;101258.44;4912078;29;20044;-69
2023/12/27 03:32:24;;;;;;;1.52;0.45;;;;;;;6.09;92.90;101249.94;4928095;28;20039;-69
2023/12/27 03:34:49;;;;;;;10.98;0.70;;;;;;;6.23;92.30;101259.41;4924332;29;20802;-69
2023/12/27 03:37:15;;;;;;;0.85;0.45;;;;;;;6.17;91.88;101252.63;4922007;29;20035;-69
2023/12/27 03:39:44;;;;;;;2.13;1.20;;;;;;;6.08;92.05;101256.34;4921993;29;20682;-69
2023/12/27 03:42:12;;;;;;;2.40;1.20;;;;;;;6.08;92.04;101256.34;4923889;29;20036;-69
2023/12/27 03:44:37;;;;;;;1.30;0.68;;;;;;;6.02;91.69;101254.94;4926480;29;20720;-69
2023/12/27 03:47:03;;;;;;;0.80;0.80;;;;;;;5.95;92.21;101255.38;4925364;29;20036;-69
2023/12/27 03:49:28;;;;;;;1.95;0.68;;;;;;;5.95;92.61;101263.41;4901593;29;20031;-69
2023/12/27 03:51:54;;;;;;;2.38;0.77;;;;;;;6.00;92.72;101270.50;4920655;29;20126;-69
2023/12/27 03:54:19;;;;;;;2.83;1.33;;;;;;;6.07;92.15;101276.97;4898679;29;20098;-69
2023/12/27 03:56:45;;;;;;;6.47;1.63;;;;;;;5.98;91.96;101281.47;4926959;29;20055;-69
2023/12/27 03:59:11;;;;;;;0.50;0.50;;;;;;;6.04;91.67;101288.28;4925952;29;20703;-69
2023/12/27 04:01:37;;;;;;;0.70;0.60;;;;;;;6.08;91.48;101285.75;4928055;29;20495;-69
2023/12/27 04:04:02;;;;;;;0.85;0.70;;;;;;;5.90;91.21;101282.25;4927642;29;20047;-69
2023/12/27 04:06:28;;;;;;;0.40;0.30;;;;;;;5.83;92.18;101283.72;4926776;29;20055;-69
2023/12/27 04:08:53;;;;;;;0.40;0.40;;;;;;;5.82;91.44;101290.97;4926223;29;20419;-69
2023/12/27 04:11:19;;;;;;;1.45;0.50;;;;;;;5.85;90.98;101293.06;4921337;29;20110;-69
2023/12/27 04:13:44;;;;;;;0.57;0.57;;;;;;;5.90;90.98;101294.81;4920040;29;20063;-69
2023/12/27 04:16:13;;;;;;;0.63;0.63;;;;;;;5.70;90.48;101285.41;4921455;29;20566;-69
2023/12/27 04:18:38;;;;;;;0.40;0.40;;;;;;;5.67;91.18;101290.59;4918816;29;20063;-69
2023/12/27 04:21:04;;;;;;;0.32;0.32;;;;;;;5.64;91.74;101291.19;4910758;29;20456;-69
2023/12/27 04:23:30;;;;;;;0.35;0.35;;;;;;;5.68;91.53;101290.25;4912774;29;20738;-69
2023/12/27 04:25:56;;;;;;;0.50;0.40;;;;;;;5.59;91.39;101285.97;4920982;29;20027;-69
2023/12/27 04:28:21;;;;;;;0.63;0.63;;;;;;;5.63;91.22;101285.06;4928753;29;20107;-69
2023/12/27 04:30:47;;;;;;;9.82;0.85;;;;;;;5.64;91.17;101280.50;4925234;29;20090;-69
2023/12/27 04:33:12;;;;;;;0.82;0.43;;;;;;;5.59;91.40;101275.28;4905678;29;20042;-69
2023/12/27 04:35:38;;;;;;;1.85;0.77;;;;;;;5.66;91.07;101279.09;4920954;29;20100;-69
2023/12/27 04:38:03;;;;;;;1.23;0.70;;;;;;;5.64;90.93;101269.81;4923325;29;20130;-69
2023/12/27 04:40:29;;;;;;;0.65;0.65;;;;;;;5.57;90.82;101272.94;4925691;29;20048;-69
2023/12/27 04:42:54;;;;;;;1.10;0.95;;;;;;;5.57;91.49;101280.16;4920626;29;20054;-69
2023/12/27 04:45:20;;;;;;;0.57;0.45;;;;;;;5.55;91.74;101277.78;4910803;29;20028;-69
2023/12/27 04:47:45;;;;;;;0.45;0.45;;;;;;;5.58;91.72;101279.03;4921729;29;20283;-69
2023/12/27 04:50:11;;;;;;;2.08;0.20;;;;;;;5.70;91.68;101282.75;4922344;29;20619;-69
2023/12/27 04:52:36;;;;;;;0.30;0.30;;;;;;;5.72;91.01;101282.41;4920867;29;20048;-69
2023/12/27 04:55:03;;;;;;;1.73;0.73;;;;;;;5.59;91.24;101284.09;4927491;29;20023;-69
2023/12/27 04:57:29;;;;;;;4.28;1.30;;;;;;;5.57;91.51;101296.97;4924291;29;20819;-69
2023/12/27 04:59:54;;;;;;;0.73;0.70;;;;;;;5.58;91.81;101301.19;4927391;29;20511;-69
2023/12/27 05:02:20;;;;;;;0.63;0.50;;;;;;;5.47;91.86;101308.69;4930420;28;20515;-69
2023/12/27 05:04:45;;;;;;;3.55;0.50;;;;;;;5.49;91.98;101306.50;4916519;29;20129;-69
2023/12/27 05:07:11;;;;;;;0.47;0.47;;;;;;;5.45;91.74;101302.06;4921293;29;20553;-69
2023/12/27 05:09:36;;;;;;;0.30;0.30;;;;;;;5.52;92.86;101309.66;4919728;29;20031;-69
2023/12/27 05:12:03;;;;;;;1.38;0.93;;;;;;;5.65;92.48;101311.47;4927182;29;20466;-69
2023/12/27 05:14:28;;;;;;;0.85;0.60;;;;;;;5.67;93.36;101311.94;4925863;29;21762;-69
2023/12/27 05:16:55;;;;;;;0.50;0.40;;;;;;;5.76;92.90;101321.59;4929883;29;20047;-69
2023/12/27 05:19:21;;;;;;;0.50;0.50;;;;;;;5.84;93.27;101320.09;4918052;29;20095;-69
2023/12/27 05:21:46;;;;;;;1.25;0.65;;;;;;;5.89;93.04;101330.63;4925744;29;20649;-69
2023/12/27 05:24:12;;;;;;;1.75;0.47;;;;;;;5.85;92.39;101329.66;4928413;29;20035;-69
2023/12/27 05:26:37;;;;;;;3.70;0.93;;;;;;;5.85;94.13;101340.34;4926580;29;20086;-69
2023/12/27 05:29:03;;;;;;;2.58;0.45;;;;;;;5.89;93.62;101346.69;4931877;29;20047;-69
2023/12/27 05:31:29;;;;;;;1.27;0.57;;;;;;;6.00;94.13;101343.44;4929475;29;20069;-69
2023/12/27 05:33:55;;;;;;;0.47;0.47;;;;;;;5.92;93.93;101336.16;4932182;29;20036;-69
2023/12/27 05:36:21;;;;;;;0.38;0.38;;;;;;;5.98;94.19;101334.94;4915072;29;20036;-69
2023/12/27 05:38:46;;;;;;;0.57;0.47;;;;;;;6.02;94.10;101340.47;4932825;29;20036;-71
2023/12/27 05:41:12;;;;;;;1.77;1.30;;;;;;;6.13;94.21;101344.47;4931412;29;20037;-69
2023/12/27 05:43:37;;;;;;;1.00;0.52;;;;;;;6.08;94.08;101340.03;4929482;29;20035;-69
2023/12/27 05:46:03;;;;;;;0.32;0.32;;;;;;;6.20;93.39;101326.06;4929914;29;20044;-70
2023/12/27 05:48:28;;;;;;;0.60;0.60;;;;;;;6.07;93.79;101333.13;4929904;29;20059;-72
2023/12/27 05:50:54;;;;;;;1.95;0.63;;;;;;;6.15;93.97;101335.03;4911999;29;20076;-69
2023/12/27 05:53:20;;;;;;;1.55;0.57;;;;;;;6.08;93.26;101337.34;4926356;29;20523;-69
2023/12/27 05:55:46;;;;;;;0.52;0.52;;;;;;;6.13;93.25;101341.78;4925942;29;20062;-69
2023/12/27 05:58:11;;;;;;;0.43;0.38;;;;;;;6.15;93.05;101337.72;4925786;29;20665;-69
2023/12/27 06:00:37;;;;;;;2.40;0.90;;;;;;;6.15;93.71;101342.25;4919650;29;20632;-69
2023/12/27 06:03:03;;;;;;;5.65;0.55;;;;;;;6.13;93.05;101336.44;4927076;29;20031;-69
2023/12/27 06:05:28;;;;;;;1.90;0.90;;;;;;;6.09;93.93;101346.16;4924706;29;21310;-69
2023/12/27 06:07:54;;;;;;;1.75;0.88;;;;;;;6.02;94.43;101337.81;4926317;29;20028;-69
2023/12/27 06:10:19;;;;;;;3.45;0.70;;;;;;;6.05;94.57;101339.84;4928390;29;20024;-69
2023/12/27 06:12:45;;;;;;;6.72;0.85;;;;;;;5.99;94.34;101341.06;4927675;29;20051;-69
2023/12/27 06:15:10;;;;;;;1.35;0.57;;;;;;;6.06;94.75;101344.88;4904522;29;20684;-69
2023/12/27 06:17:36;;;;;;;3.42;0.88;;;;;;;6.12;94.10;101343.66;4941348;29;20102;-69
2023/12/27 06:20:04;;;;;;;2.63;0.57;;;;;;;6.03;94.67;101339.38;4925724;29;20095;-69
2023/12/27 06:22:29;;;;;;;0.47;0.47;;;;;;;6.07;94.96;101346.47;4924305;29;20047;-69
2023/12/27 06:24:55;;;;;;;1.23;0.60;;;;;;;6.12;94.45;101345.53;4928429;29;20526;-69
2023/12/27 06:27:20;;;;;;;1.75;0.55;;;;;;;6.16;93.92;101338.47;4927845;29;20510;-69
2023/12/27 06:29:46;;;;;;;0.30;0.30;;;;;;;6.14;94.46;101338.78;4928988;29;20051;-69
2023/12/27 06:32:12;;;;;;;0.50;0.50;;;;;;;6.14;93.78;101336.13;4926486;29;20044;-69
2023/12/27 06:34:38;;;;;;;0.68;0.68;;;;;;;6.22;94.15;101345.28;4926237;29;20043;-69
2023/12/27 06:37:03;;;;;;;0.90;0.88;;;;;;;6.20;93.81;101342.91;4904430;29;20088;-69
2023/12/27 06:39:29;;;;;;;0.98;0.63;;;;;;;6.19;94.31;101351.25;4926921;29;20047;-69
2023/12/27 06:41:54;;;;;;;0.55;0.52;;;;;;;6.21;94.44;101357.84;4926263;29;20131;-69
2023/12/27 06:44:20;;;;;;;0.70;0.70;;;;;;;6.22;94.61;101355.97;4926613;29;20032;-69
2023/12/27 06:46:45;;;;;;;0.98;0.70;;;;;;;6.20;94.49;101356.28;4924445;29;20122;-69
2023/12/27 06:49:11;;;;;;;0.30;0.30;;;;;;;6.29;93.87;101362.44;4928271;29;20024;-69
2023/12/27 06:51:36;;;;;;;1.45;0.82;;;;;;;6.25;94.35;101358.03;4926970;29;20043;-69
2023/12/27 06:54:02;;;;;;;0.63;0.63;;;;;;;6.29;94.07;101361.69;4929640;29;20039;-69
2023/12/27 06:56:28;;;;;;;0.35;0.32;;;;;;;6.29;93.96;101362.44;4928290;29;20040;-69
2023/12/27 06:58:54;;;;;;;0.93;0.70;;;;;;;6.31;93.56;101364.81;4929188;29;20044;-69
2023/12/27 07:01:19;;;;;;;1.13;0.60;;;;;;;6.41;93.87;101369.13;4928071;29;20067;-69
2023/12/27 07:03:45;;;;;;;3.03;1.15;;;;;;;6.43;93.16;101350.88;4927813;29;20051;-69
2023/12/27 07:06:11;;;;;;;0.52;0.52;;;;;;;6.41;93.40;101358.44;4919241;29;20044;-69
2023/12/27 07:08:36;;;;;;;5.57;2.20;;;;;;;6.48;93.02;101358.75;4924894;29;20545;-69
2023/12/27 07:11:03;;;;;;;3.10;0.77;;;;;;;6.45;93.76;101360.16;4925201;29;20046;-69
2023/12/27 07:13:28;;;;;;;0.65;0.65;;;;;;;6.46;93.17;101353.72;4927009;29;20148;-69
2023/12/27 07:15:54;;;;;;;8.27;0.85;;;;;;;6.39;93.02;101345.34;4924192;29;20166;-69
2023/12/27 07:18:19;;;;;;;0.93;0.70;;;;;;;6.38;93.97;101344.56;4904498;29;20027;-69
2023/12/27 07:20:45;;;;;;;2.55;0.65;;;;;;;6.54;93.21;101339.59;4905746;29;20110;-69
2023/12/27 07:23:11;;;;;;;2.08;0.63;;;;;;;6.47;92.86;101362.50;4925478;29;20040;-69
2023/12/27 07:25:37;;;;;;;0.52;0.52;;;;;;;6.45;93.63;101354.81;4940265;29;20046;-69
2023/12/27 07:28:03;;;;;;;0.60;0.60;;;;;;;6.51;93.22;101358.13;4928969;29;20023;-69
2023/12/27 07:30:29;;;;;;;5.50;0.88;;;;;;;6.53;93.51;101362.06;4954162;28;20472;-69
2023/12/27 07:32:54;;;;;;;0.82;0.77;;;;;;;6.48;93.69;101359.56;4925474;29;20083;-69
2023/12/27 07:35:19;;;;;;;0.70;0.70;;;;;;;6.50;93.17;101360.03;4925599;29;20167;-69
2023/12/27 07:37:46;;;;;;;2.83;0.80;;;;;;;6.50;93.23;101352.00;4928029;29;20047;-69
2023/12/27 07:40:14;;;;;;;1.17;0.50;;;;;;;6.49;93.04;101361.13;4928086;29;20028;-69
2023/12/27 07:42:40;;;;;;;1.45;0.60;;;;;;;6.46;93.57;101353.72;4926083;29;20414;-69
2023/12/27 07:45:06;;;;;;;2.10;0.95;;;;;;;6.53;93.29;101356.72;4930828;29;20044;-69
2023/12/27 07:47:32;;;;;;;0.85;0.73;;;;;;;6.53;93.46;101363.97;4924095;29;20077;-69
2023/12/27 07:49:58;;;;;;;2.45;0.80;;;;;;;6.56;92.82;101358.81;4924494;29;20081;-69
2023/12/27 07:52:24;;;;;;;2.53;0.60;;;;;;;6.50;93.41;101354.69;4923825;29;20614;-70
2023/12/27 07:54:49;;;;;;;0.82;0.55;;;;;;;6.59;92.10;101350.13;4934633;28;20131;-69
2023/12/27 07:57:15;;;;;;;0.70;0.70;;;;;;;6.48;92.63;101354.19;4924366;29;20150;-69
2023/12/27 07:59:40;;;;;;;0.93;0.60;;;;;;;6.50;91.54;101357.34;4927179;29;20510;-70
2023/12/27 08:02:05;;;;;;;2.88;1.13;;;;;;;6.29;92.95;101367.03;4948572;28;20130;-69
2023/12/27 08:04:31;;;;;;;1.38;0.73;;;;;;;6.26;94.02;101373.78;4922298;29;20030;-69
2023/12/27 08:06:56;;;;;;;2.95;1.48;;;;;;;6.20;94.04;101366.19;4925134;29;20611;-69
2023/12/27 08:09:22;;;;;;;0.63;0.50;;;;;;;6.38;92.85;101363.28;4921815;29;20040;-69
2023/12/27 08:11:48;;;;;;;0.63;0.63;;;;;;;6.26;92.50;101370.31;4916674;29;20063;-69
2023/12/27 08:14:13;;;;;;;5.45;1.00;;;;;;;6.30;92.83;101373.94;4927430;29;20487;-69
2023/12/27 08:16:38;;;;;;;1.25;1.15;;;;;;;6.28;91.79;101366.25;4927908;29;20032;-69
2023/12/27 08:19:04;;;;;;;0.63;0.63;;;;;;;6.18;92.31;101371.06;4924903;29;20051;-69
2023/12/27 08:21:29;;;;;;;0.82;0.82;;;;;;;6.17;93.54;101358.78;4912646;29;20131;-69
2023/12/27 08:23:55;;;;;;;0.60;0.57;;;;;;;6.17;93.61;101367.59;4925226;29;20106;-69
2023/12/27 08:26:20;;;;;;;2.80;1.52;;;;;;;6.13;93.48;101376.53;4923557;29;20122;-69
2023/12/27 08:28:46;;;;;;;1.13;0.77;;;;;;;6.14;93.41;101370.88;4907824;29;20166;-69
2023/12/27 08:31:13;;;;;;;1.38;0.90;;;;;;;6.16;93.75;101378.59;4924273;29;20067;-69
2023/12/27 08:33:38;;;;;;;0.65;0.65;;;;;;;6.38;92.43;101381.22;4927574;29;20058;-69
2023/12/27 08:36:05;;;;;;;0.73;0.57;;;;;;;6.39;92.45;101374.75;4923610;29;20035;-69
2023/12/27 08:38:31;;;;;;;0.93;0.80;;;;;;;6.39;92.58;101374.75;4926240;29;20047;-69
2023/12/27 08:40:56;;;;;;;1.35;0.85;;;;;;;6.35;93.16;101374.59;4924187;29;20058;-69
2023/12/27 08:43:27;;;;;;;0.63;0.60;;;;;;;6.53;92.36;101371.97;4930468;28;20110;-69
2023/12/27 08:45:53;;;;;;;1.10;1.05;;;;;;;6.47;91.89;101376.69;4920866;29;20043;-69
2023/12/27 08:48:18;;;;;;;1.13;1.05;;;;;;;6.43;91.55;101381.06;4926154;29;20043;-69
2023/12/27 08:50:44;;;;;;;1.15;1.05;;;;;;;6.47;92.30;101384.72;4931185;29;20115;-69
2023/12/27 08:53:11;;;;;;;0.57;0.52;;;;;;;6.58;91.44;101388.69;4927550;29;20547;-69
2023/12/27 08:55:37;;;;;;;1.58;1.10;;;;;;;6.52;92.24;101397.16;4933352;29;20047;-69
2023/12/27 08:58:03;;;;;;;1.02;0.70;;;;;;;6.62;91.54;101386.19;4928446;29;20031;-69
2023/12/27 09:00:31;;;;;;;1.20;1.10;;;;;;;6.53;92.22;101374.66;4928214;29;20158;-68
2023/12/27 09:02:56;;;;;;;7.40;0.82;;;;;;;6.64;91.23;101389.34;4932796;29;20146;-69
2023/12/27 09:05:22;;;;;;;1.33;1.10;;;;;;;6.62;91.43;101381.63;4925267;29;20130;-69
2023/12/27 09:07:47;;;;;;;0.70;0.70;;;;;;;6.67;91.10;101392.19;4926564;29;20062;-69
2023/12/27 09:10:13;;;;;;;0.85;0.63;;;;;;;6.66;91.44;101387.16;4926607;29;20098;-69
2023/12/27 09:12:41;;;;;;;5.10;2.42;;;;;;;6.77;89.92;101378.53;4927027;29;20055;-69
2023/12/27 09:15:07;;;;;;;0.63;0.60;;;;;;;6.67;89.41;101376.13;4929823;29;20111;-69
2023/12/27 09:17:33;;;;;;;1.10;1.05;;;;;;;6.61;90.15;101368.56;4932000;29;20096;-69
2023/12/27 09:19:59;;;;;;;0.75;0.57;;;;;;;6.69;90.91;101376.63;4933385;29;20040;-69
2023/12/27 09:22:24;;;;;;;0.63;0.63;;;;;;;6.73;90.81;101372.22;4914991;29;20507;-71
2023/12/27 09:24:50;;;;;;;2.97;0.60;;;;;;;6.74;90.06;101373.78;4925080;29;20111;-69
2023/12/27 09:27:17;;;;;;;2.72;1.27;;;;;;;6.69;89.86;101378.50;4926996;29;20058;-69
2023/12/27 09:29:44;;;;;;;0.75;0.73;;;;;;;6.73;90.25;101388.28;4923201;29;20043;-69
2023/12/27 09:32:10;;;;;;;1.77;0.93;;;;;;;6.73;90.91;101387.50;4927702;29;20035;-69
2023/12/27 09:34:36;;;;;;;1.10;0.70;;;;;;;6.85;89.90;101383.09;4953557;28;20098;-69
2023/12/27 09:37:03;;;;;;;0.65;0.60;;;;;;;6.80;90.24;101391.28;4929963;29;20132;-69
2023/12/27 09:39:32;;;;;;;1.13;0.88;;;;;;;6.93;90.03;101390.38;4932951;29;20090;-69
2023/12/27 09:41:58;;;;;;;0.98;0.82;;;;;;;6.94;90.06;101399.19;4929833;29;20227;-69
2023/12/27 09:44:24;;;;;;;3.40;1.10;;;;;;;6.96;90.02;101392.44;4930349;29;20715;-69
2023/12/27 09:46:50;;;;;;;1.55;0.77;;;;;;;6.89;89.87;101392.09;4932560;29;20043;-69
2023/12/27 09:49:15;;;;;;;1.45;1.35;;;;;;;6.94;90.14;101393.84;4931233;29;20031;-69
2023/12/27 09:51:42;;;;;;;2.67;0.88;;;;;;;6.98;89.06;101389.44;4930405;29;20249;-69
2023/12/27 09:54:08;;;;;;;7.22;1.15;;;;;;;6.96;89.23;101389.75;4924880;29;20671;-69
2023/12/27 09:56:36;;;;;;;2.20;1.50;;;;;;;7.02;88.95;101385.84;4924871;29;20039;-69
2023/12/27 09:59:05;;;;;;;1.08;0.70;;;;;;;6.95;89.17;101387.41;4925963;29;20036;-69
2023/12/27 10:01:38;;;;;;;1.70;0.50;;;;;;;6.96;89.06;101371.03;4927747;29;20067;-69
2023/12/27 10:04:10;;;;;;;1.65;0.77;;;;;;;6.99;89.25;101369.59;4939220;29;20043;-69
2023/12/27 10:06:44;;;;;;;1.40;1.10;;;;;;;7.03;88.16;101365.97;4927191;29;20070;-69
2023/12/27 10:09:13;;;;;;;0.75;0.75;;;;;;;7.02;87.55;101367.09;4929767;29;20035;-69
2023/12/27 10:11:43;;;;;;;7.20;0.88;;;;;;;6.86;88.10;101357.13;4924063;29;20039;-70
2023/12/27 10:14:09;;;;;;;0.63;0.63;;;;;;;6.87;87.98;101354.13;4957139;28;20036;-69
2023/12/27 10:16:36;;;;;;;2.38;1.25;;;;;;;6.88;88.57;101352.25;4926686;29;20040;-69
2023/12/27 10:19:04;;;;;;;0.77;0.52;;;;;;;6.96;88.16;101348.81;4925364;29;20019;-69
2023/12/27 10:21:43;;;;;;;0.50;0.50;;;;;;;6.95;87.65;101348.00;4917704;29;20708;-69
2023/12/27 10:24:10;;;;;;;3.53;1.00;;;;;;;6.90;87.88;101355.41;4944679;28;20043;-69
2023/12/27 10:26:36;;;;;;;0.73;0.60;;;;;;;6.85;88.26;101348.31;4922808;29;20037;-69
2023/12/27 10:29:03;;;;;;;2.65;2.08;;;;;;;6.85;88.49;101350.97;4930142;29;20028;-69
2023/12/27 10:31:29;;;;;;;0.50;0.50;;;;;;;6.94;88.81;101343.78;4926207;29;20043;-69
2023/12/27 10:33:55;;;;;;;0.63;0.57;;;;;;;7.04;87.64;101331.97;4924585;29;20224;-69
2023/12/27 10:36:21;;;;;;;0.60;0.60;;;;;;;7.03;88.18;101331.16;4922467;29;20031;-70
2023/12/27 10:38:46;;;;;;;0.73;0.73;;;;;;;6.95;89.29;101315.13;4948691;28;20055;-69
2023/12/27 10:41:12;;;;;;;0.50;0.50;;;;;;;7.03;89.46;101315.09;4939366;29;20043;-69
2023/12/27 10:43:38;;;;;;;2.70;0.63;;;;;;;7.17;87.84;101313.06;4957431;28;20023;-69
2023/12/27 10:46:08;;;;;;;1.05;0.60;;;;;;;7.21;87.80;101314.00;4929769;29;20031;-69
2023/12/27 10:48:37;;;;;;;2.53;1.42;;;;;;;7.30;87.17;101295.25;4923910;29;20035;-69
2023/12/27 10:51:03;;;;;;;0.88;0.88;;;;;;;7.22;87.42;101307.53;4922782;29;20027;-69
2023/12/27 10:53:33;;;;;;;1.15;0.70;;;;;;;7.17;87.54;101307.72;4922319;29;20044;-69
2023/12/27 10:56:01;;;;;;;1.33;0.77;;;;;;;7.18;88.02;101289.75;4911254;29;20063;-69
2023/12/27 10:58:33;;;;;;;5.97;1.20;;;;;;;7.26;86.74;101297.78;4932298;29;20039;-69
2023/12/27 11:00:59;;;;;;;1.85;1.13;;;;;;;7.22;86.21;101291.47;4923788;29;20050;-69
2023/12/27 11:03:28;;;;;;;1.00;0.90;;;;;;;7.19;87.08;101284.09;4915089;29;20023;-69
2023/12/27 11:05:56;;;;;;;2.90;0.98;;;;;;;7.09;87.71;101281.72;4927532;29;20482;-69
2023/12/27 11:08:24;;;;;;;0.85;0.85;;;;;;;7.17;87.80;101272.09;4930502;29;20043;-69
2023/12/27 11:10:52;;;;;;;2.35;0.95;;;;;;;7.23;86.98;101276.19;4930326;29;20087;-69
2023/12/27 11:13:21;;;;;;;3.03;0.95;;;;;;;7.15;87.09;101269.75;4928778;29;20419;-69
2023/12/27 11:15:48;;;;;;;0.45;0.45;;;;;;;7.10;88.18;101266.44;4928045;29;20060;-69
2023/12/27 11:18:13;;;;;;;0.68;0.60;;;;;;;7.12;88.27;101248.19;4929182;29;20031;-69
2023/12/27 11:20:40;;;;;;;9.60;0.63;;;;;;;7.03;88.37;101256.19;4925783;29;20042;-69
2023/12/27 11:23:07;;;;;;;1.40;0.77;;;;;;;7.12;88.55;101246.25;4929737;29;20051;-69
2023/12/27 11:25:32;;;;;;;3.05;0.43;;;;;;;7.21;87.65;101252.41;4930491;29;20065;-69
2023/12/27 11:28:02;;;;;;;1.83;0.75;;;;;;;7.28;88.42;101250.03;4930119;29;20070;-69